Time;durP1;ratioP1;P1;durP2;ratioP2;P2;SDS_P1;SDS_P2;PMS_P1;PMS_P2;Temp;Humidity;BMP_temperature;BMP_pressure;BME280_temperature;BME280_humidity;BME280_pressure;Samples;Min_cycle;Max_cycle;Signal;HPM_P1;HPM_P2
2022/10/06 03:38:49;;;;;;;;;;;;;;;8.23;100.00;100673.72;5251601;23;19934;-87
2022/10/06 03:41:23;;;;;;;;;;;;;;;8.22;100.00;100693.97;5003960;28;20278;-89
2022/10/06 03:43:49;;;;;;;;;;;;;;;8.23;100.00;100694.84;5003416;28;19917;-91
2022/10/06 03:46:17;;;;;;;;;;;;;;;8.29;100.00;100689.44;5003456;28;20257;-90
2022/10/06 03:48:43;;;;;;;;;;;;;;;8.23;100.00;100697.47;4986160;28;19973;-87
2022/10/06 03:51:14;;;;;;;;;;;;;;;8.45;100.00;100704.13;4986106;28;19929;-90
2022/10/06 03:53:42;;;;;;;;;;;;;;;8.36;100.00;100701.66;5001751;28;20437;-89
2022/10/06 03:56:15;;;;;;;;;;;;;;;8.28;100.00;100706.19;5003022;28;19925;-91
2022/10/06 03:58:44;;;;;;;;;;;;;;;8.41;100.00;100713.00;4986222;28;19994;-88
2022/10/06 04:01:15;;;;;;;;;;;;;;;8.37;100.00;100720.06;4984953;28;19918;-86
2022/10/06 04:03:40;;;;;;;;;;;;;;;8.37;100.00;100716.56;4985578;28;19924;-90
2022/10/06 04:06:07;;;;;;;;;;;;;;;8.32;100.00;100723.72;5003618;28;19917;-88
2022/10/06 04:08:33;;;;;;;;;;;;;;;8.27;100.00;100728.22;4982470;28;19948;-88
2022/10/06 04:11:08;;;;;;;;;;;;;;;8.33;100.00;100722.84;4986511;28;20402;-92
2022/10/06 04:13:34;;;;;;;;;;;;;;;8.33;100.00;100730.75;5002769;28;19917;-84
2022/10/06 04:16:08;;;;;;;;;;;;;;;8.37;100.00;100735.06;4985461;28;20360;-85
2022/10/06 04:18:33;;;;;;;;;;;;;;;8.34;100.00;100746.56;4985839;28;20012;-91
2022/10/06 04:20:59;;;;;;;;;;;;;;;8.35;100.00;100742.16;4983044;28;20008;-89
2022/10/06 04:23:24;;;;;;;;;;;;;;;8.32;100.00;100742.22;4980484;28;19918;-92
2022/10/06 04:25:49;;;;;;;;;;;;;;;8.29;100.00;100748.41;4985246;28;20823;-88
2022/10/06 04:28:15;;;;;;;;;;;;;;;8.34;100.00;100741.28;4985582;28;19918;-89
2022/10/06 04:30:40;;;;;;;;;;;;;;;8.41;100.00;100752.59;4985345;28;19968;-90
2022/10/06 04:33:06;;;;;;;;;;;;;;;8.44;100.00;100759.63;5003163;28;19918;-88
2022/10/06 04:35:31;;;;;;;;;;;;;;;8.36;100.00;100762.38;5003325;28;19947;-93
2022/10/06 04:37:56;;;;;;;;;;;;;;;8.42;100.00;100764.88;4984116;28;19925;-90
2022/10/06 04:40:22;;;;;;;;;;;;;;;8.34;100.00;100756.25;4984654;28;19932;-88
2022/10/06 04:42:48;;;;;;;;;;;;;;;8.36;100.00;100760.59;4980102;28;19918;-91
2022/10/06 04:45:13;;;;;;;;;;;;;;;8.36;100.00;100767.66;4985967;28;20104;-89
2022/10/06 04:47:39;;;;;;;;;;;;;;;8.30;100.00;100770.41;4984570;28;20390;-93
2022/10/06 04:50:04;;;;;;;;;;;;;;;8.42;100.00;100774.59;4985018;28;20288;-90
2022/10/06 04:52:29;;;;;;;;;;;;;;;8.46;100.00;100777.19;5002022;28;19924;-87
2022/10/06 04:54:56;;;;;;;;;;;;;;;8.40;100.00;100781.69;4968481;28;19917;-91
2022/10/06 04:57:30;;;;;;;;;;;;;;;8.37;100.00;100782.59;4986261;28;19924;-92
2022/10/06 08:08:05;;;;;;;;;;;;;;;8.28;100.00;101044.19;4988271;28;20027;-88
2022/10/06 08:10:31;;;;;;;;;;;;;;;8.36;100.00;101044.97;5003259;28;20404;-87
2022/10/06 08:12:56;;;;;;;;;;;;;;;8.51;100.00;101039.47;5003328;28;19922;-90
2022/10/06 08:15:24;;;;;;;;;;;;;;;8.39;100.00;101049.31;4985619;28;19917;-86
2022/10/06 08:17:52;;;;;;;;;;;;;;;8.46;100.00;101054.53;4986292;28;19918;-87
2022/10/06 08:20:18;;;;;;;;;;;;;;;8.25;100.00;101052.13;5001565;28;20473;-90
2022/10/06 08:22:46;;;;;;;;;;;;;;;8.32;100.00;101061.75;5001173;28;19928;-87
2022/10/06 08:25:11;;;;;;;;;;;;;;;8.32;100.00;101059.09;4985040;28;19922;-84
2022/10/06 08:27:37;;;;;;;;;;;;;;;8.34;100.00;101065.22;5003961;28;19929;-90
2022/10/06 08:30:06;;;;;;;;;;;;;;;8.32;100.00;101067.88;4984624;28;19917;-89
2022/10/06 08:32:31;;;;;;;;;;;;;;;8.33;100.00;101076.69;4984287;28;19948;-85
2022/10/06 08:34:57;;;;;;;;;;;;;;;8.29;100.00;101072.34;4992673;28;19920;-87
2022/10/06 08:37:26;;;;;;;;;;;;;;;8.26;100.00;101070.59;5002942;28;19940;-87
2022/10/06 08:39:54;;;;;;;;;;;;;;;8.28;100.00;101073.22;5000685;28;20371;-85
2022/10/06 08:42:43;;;;;;;;;;;;;;;8.25;100.00;101073.25;4984557;28;19968;-85
2022/10/06 08:45:15;;;;;;;;;;;;;;;8.37;100.00;101081.03;5000023;28;19921;-89
2022/10/06 08:47:48;;;;;;;;;;;;;;;8.56;100.00;101073.75;5000632;28;19913;-89
2022/10/06 08:50:13;;;;;;;;;;;;;;;8.55;100.00;101082.56;4980213;28;19921;-90
2022/10/06 08:52:53;;;;;;;;;;;;;;;8.35;100.00;101088.97;5003122;28;20013;-88
2022/10/06 08:55:27;;;;;;;;;;;;;;;8.26;100.00;101090.84;5000476;28;19918;-84
2022/10/06 08:58:01;;;;;;;;;;;;;;;8.31;100.00;101094.31;5002679;28;19925;-88
2022/10/06 09:00:31;;;;;;;;;;;;;;;8.27;100.00;101093.47;5001948;28;19964;-86
2022/10/06 09:02:58;;;;;;;;;;;;;;;8.22;100.00;101095.31;4984934;28;19989;-91
2022/10/06 09:05:28;;;;;;;;;;;;;;;8.33;100.00;101093.41;4984454;28;19928;-89
2022/10/06 09:08:12;;;;;;;;;;;;;;;8.20;100.00;101102.38;4985206;28;19925;-87
2022/10/06 09:10:57;;;;;;;;;;;;;;;8.37;100.00;101107.44;5002660;28;19967;-86
2022/10/06 09:13:28;;;;;;;;;;;;;;;8.47;100.00;101105.59;5000714;28;19913;-89
2022/10/06 09:16:14;;;;;;;;;;;;;;;8.65;100.00;101109.78;5002256;28;19930;-91
2022/10/06 09:19:03;;;;;;;;;;;;;;;8.40;100.00;101115.31;4984235;28;19922;-90
2022/10/06 09:21:38;;;;;;;;;;;;;;;8.32;100.00;101109.28;4989303;28;19918;-88
2022/10/06 09:24:06;;;;;;;;;;;;;;;8.32;100.00;101117.19;5003221;28;19922;-86
2022/10/06 09:26:32;;;;;;;;;;;;;;;8.25;100.00;101118.16;5001527;28;19926;-91
2022/10/06 09:28:58;;;;;;;;;;;;;;;8.55;100.00;101116.91;4985067;28;19917;-91
2022/10/06 09:31:28;;;;;;;;;;;;;;;8.41;100.00;101111.81;4985294;28;19977;-90
2022/10/06 09:33:58;;;;;;;;;;;;;;;8.31;100.00;101110.16;5002348;28;19988;-85
2022/10/06 09:36:23;;;;;;;;;;;;;;;8.54;100.00;101118.69;4984908;28;19924;-89
2022/10/06 09:38:53;;;;;;;;;;;;;;;8.30;100.00;101117.22;4989125;28;19921;-89
2022/10/06 09:41:21;;;;;;;;;;;;;;;8.36;100.00;101118.91;4989076;28;20036;-85
2022/10/06 09:43:51;;;;;;;;;;;;;;;8.57;100.00;101120.44;4988404;28;19983;-86
2022/10/06 09:46:19;;;;;;;;;;;;;;;8.75;100.00;101129.00;4988557;28;19928;-84
2022/10/06 09:48:45;;;;;;;;;;;;;;;8.66;100.00;101125.59;4988719;28;19928;-88
2022/10/06 09:51:15;;;;;;;;;;;;;;;8.71;100.00;101128.16;4987306;28;20004;-89
2022/10/06 09:53:41;;;;;;;;;;;;;;;8.36;100.00;101124.22;4989904;28;19917;-89
2022/10/06 09:56:12;;;;;;;;;;;;;;;8.34;100.00;101123.31;4988775;28;20373;-90
2022/10/06 09:58:38;;;;;;;;;;;;;;;8.65;100.00;101125.63;4987547;28;19922;-86
2022/10/06 10:01:11;;;;;;;;;;;;;;;8.34;100.00;101123.31;4988671;28;19922;-88
2022/10/06 10:04:02;;;;;;;;;;;;;;;8.34;100.00;101128.59;4987270;28;19922;-89
2022/10/06 10:06:31;;;;;;;;;;;;;;;8.58;100.00;101123.94;4983799;28;20016;-88
2022/10/06 10:09:15;;;;;;;;;;;;;;;8.72;100.00;101124.63;4988518;28;19921;-92
2022/10/06 10:14:24;;;;;;;;;;;;;;;8.70;100.00;101118.50;5006370;28;19919;-90
2022/10/06 10:16:50;;;;;;;;;;;;;;;8.31;100.00;101111.06;5005444;28;19922;-87
2022/10/06 10:19:24;;;;;;;;;;;;;;;8.39;100.00;101123.28;4983386;28;20343;-86
2022/10/06 10:21:50;;;;;;;;;;;;;;;8.32;100.00;101111.91;4986871;28;20005;-90
2022/10/06 10:24:22;;;;;;;;;;;;;;;8.28;100.00;101115.47;4986488;28;20457;-90
2022/10/06 10:26:59;;;;;;;;;;;;;;;8.37;100.00;101110.94;4987017;28;19957;-91
2022/10/06 10:29:36;;;;;;;;;;;;;;;8.56;100.00;101110.75;5004014;28;19921;-90
2022/10/06 10:32:04;;;;;;;;;;;;;;;8.31;100.00;101111.06;4987076;28;19918;-86
2022/10/06 10:34:32;;;;;;;;;;;;;;;8.27;100.00;101113.75;5004486;28;19922;-87
2022/10/06 10:37:02;;;;;;;;;;;;;;;8.26;100.00;101119.91;4986928;28;19943;-88
2022/10/06 10:39:34;;;;;;;;;;;;;;;8.65;100.00;101115.06;4986448;28;20376;-88
2022/10/06 10:42:03;;;;;;;;;;;;;;;8.40;100.00;101115.31;5005733;28;19917;-85
2022/10/06 10:44:32;;;;;;;;;;;;;;;8.35;100.00;101118.03;4984052;28;19983;-86
2022/10/06 10:47:04;;;;;;;;;;;;;;;8.25;100.00;101111.13;4986632;28;20392;-87
2022/10/06 10:49:30;;;;;;;;;;;;;;;8.45;100.00;101116.16;4986440;28;19944;-87
2022/10/06 10:52:01;;;;;;;;;;;;;;;8.66;100.00;101116.78;5002871;28;19924;-87
2022/10/06 10:54:45;;;;;;;;;;;;;;;8.80;100.00;101112.19;4985075;28;19918;-93
2022/10/06 10:57:13;;;;;;;;;;;;;;;8.54;100.00;101112.56;4995749;28;19918;-87
2022/10/06 10:59:59;;;;;;;;;;;;;;;8.56;100.00;101105.47;4987318;28;20446;-87
2022/10/06 11:02:25;;;;;;;;;;;;;;;8.33;100.00;101108.41;5004521;28;19960;-87
2022/10/06 11:04:56;;;;;;;;;;;;;;;8.30;100.00;101114.56;5003057;28;20231;-86
2022/10/06 11:07:40;;;;;;;;;;;;;;;8.39;100.00;101118.84;5003155;28;20000;-91
2022/10/06 11:10:15;;;;;;;;;;;;;;;8.73;100.00;101119.31;4984972;28;19925;-87
2022/10/06 11:12:40;;;;;;;;;;;;;;;8.77;100.00;101108.72;5004542;28;19922;-85
2022/10/06 11:15:32;;;;;;;;;;;;;;;8.86;100.00;101106.81;4994542;28;19940;-89
2022/10/06 11:18:06;;;;;;;;;;;;;;;8.39;100.00;101116.22;4966420;28;20376;-91
2022/10/06 11:20:49;;;;;;;;;;;;;;;8.48;100.00;101113.50;5003219;28;19928;-85
2022/10/06 11:23:19;;;;;;;;;;;;;;;8.47;100.00;101117.03;4987555;28;20277;-91
2022/10/06 11:25:56;;;;;;;;;;;;;;;8.52;100.00;101120.50;5005283;28;20335;-90
2022/10/06 11:28:38;;;;;;;;;;;;;;;8.82;100.00;101123.63;4985649;28;19921;-87
2022/10/06 11:31:09;;;;;;;;;;;;;;;8.79;100.00;101113.09;4986097;28;20016;-89
2022/10/06 11:33:40;;;;;;;;;;;;;;;8.70;100.00;101114.06;5004315;28;19926;-87
2022/10/06 11:36:13;;;;;;;;;;;;;;;8.70;100.00;101115.84;4980113;28;19971;-88
2022/10/06 11:38:41;;;;;;;;;;;;;;;8.78;100.00;101111.34;4986254;28;20396;-91
2022/10/06 11:41:21;;;;;;;;;;;;;;;8.81;100.00;101110.44;5001973;28;19918;-89
2022/10/06 11:44:03;;;;;;;;;;;;;;;8.61;100.00;101108.91;5003087;28;19918;-90
2022/10/06 11:46:37;;;;;;;;;;;;;;;8.67;100.00;101100.03;5001672;28;20016;-87
2022/10/06 11:49:29;;;;;;;;;;;;;;;8.81;100.00;101099.84;5001986;28;19983;-90
2022/10/06 11:52:07;;;;;;;;;;;;;;;8.64;100.00;101097.44;5000340;28;20012;-88
2022/10/06 11:54:44;;;;;;;;;;;;;;;8.38;100.00;101103.91;5003450;28;19918;-85
2022/10/06 11:57:21;;;;;;;;;;;;;;;8.55;100.00;101093.13;4985893;28;20016;-85
2022/10/06 11:59:48;;;;;;;;;;;;;;;8.33;100.00;101095.19;5001634;28;20376;-88
2022/10/06 12:02:31;;;;;;;;;;;;;;;8.37;100.00;101088.94;5003978;28;19961;-91
2022/10/06 12:05:08;;;;;;;;;;;;;;;8.64;100.00;101086.88;5002531;28;19921;-84
2022/10/06 12:07:57;;;;;;;;;;;;;;;8.80;100.00;101080.47;4993687;28;19929;-86
2022/10/06 12:10:33;;;;;;;;;;;;;;;8.84;100.00;101074.25;4979117;28;19925;-92
2022/10/06 12:13:13;;;;;;;;;;;;;;;8.56;100.00;101078.19;5003855;28;19921;-87
2022/10/06 12:15:38;;;;;;;;;;;;;;;8.81;100.00;101076.06;5002110;28;19929;-91
2022/10/06 12:18:26;;;;;;;;;;;;;;;8.89;100.00;101076.81;4985542;28;20108;-90
2022/10/06 12:21:05;;;;;;;;;;;;;;;8.68;100.00;101065.66;4982570;28;20273;-91
2022/10/06 12:23:42;;;;;;;;;;;;;;;8.62;100.00;101062.25;5001733;28;19914;-90
2022/10/06 12:26:26;;;;;;;;;;;;;;;8.62;100.00;101060.47;4985244;28;19922;-87
2022/10/06 12:29:12;;;;;;;;;;;;;;;8.50;100.00;101060.63;4985575;28;19918;-89
2022/10/06 12:32:07;;;;;;;;;;;;;;;8.42;100.00;101063.34;4984614;28;19997;-87
2022/10/06 12:34:43;;;;;;;;;;;;;;;8.39;100.00;101063.38;4948679;28;19942;-90
2022/10/06 12:37:33;;;;;;;;;;;;;;;8.36;100.00;101060.81;4985380;28;19961;-87
2022/10/06 12:40:17;;;;;;;;;;;;;;;8.41;100.00;101058.09;4985612;28;19972;-88
2022/10/06 12:42:42;;;;;;;;;;;;;;;8.59;100.00;101055.22;4993583;28;20440;-84
2022/10/06 12:45:15;;;;;;;;;;;;;;;8.41;100.00;101064.25;5002935;28;20000;-89
2022/10/06 12:47:42;;;;;;;;;;;;;;;8.35;100.00;101056.41;4985379;28;19917;-90
2022/10/06 12:50:21;;;;;;;;;;;;;;;8.38;100.00;101048.47;5002031;28;19924;-86
2022/10/06 12:53:07;;;;;;;;;;;;;;;8.32;100.00;101048.53;4985038;28;19918;-90
2022/10/06 12:55:32;;;;;;;;;;;;;;;8.59;100.00;101035.88;4984228;28;20373;-90
2022/10/06 12:57:58;;;;;;;;;;;;;;;8.42;100.00;101044.00;4993644;28;19929;-91
2022/10/06 13:00:37;;;;;;;;;;;;;;;8.42;100.00;101038.72;4985362;28;19921;-87
2022/10/06 13:03:05;;;;;;;;;;;;;;;8.37;100.00;101041.41;4986202;28;19914;-92
2022/10/06 13:05:32;;;;;;;;;;;;;;;8.42;100.00;101044.84;4984035;28;20620;-87
2022/10/06 13:08:02;;;;;;;;;;;;;;;8.46;100.00;101033.41;5001584;28;20356;-89
2022/10/06 13:10:31;;;;;;;;;;;;;;;8.37;100.00;101037.00;5002749;28;19940;-93
2022/10/06 13:12:57;;;;;;;;;;;;;;;8.74;100.00;101038.25;4989647;28;19917;-91
2022/10/06 13:15:22;;;;;;;;;;;;;;;8.46;100.00;101033.41;4988352;28;19972;-92
2022/10/06 13:17:48;;;;;;;;;;;;;;;8.40;100.00;101029.94;4997745;28;19922;-93
2022/10/06 13:20:21;;;;;;;;;;;;;;;8.73;100.00;101028.59;4995351;28;19976;-90
2022/10/06 13:22:54;;;;;;;;;;;;;;;8.53;100.00;101032.41;4988689;28;20387;-88
2022/10/06 13:25:19;;;;;;;;;;;;;;;8.43;100.00;101022.88;4989034;28;19968;-88
2022/10/06 13:27:49;;;;;;;;;;;;;;;8.71;100.00;101017.16;5005005;28;19953;-93
2022/10/06 13:30:18;;;;;;;;;;;;;;;8.64;100.00;101015.53;4988944;28;19932;-90
2022/10/06 13:32:44;;;;;;;;;;;;;;;8.61;100.00;101015.56;4989467;28;20127;-93
2022/10/06 13:35:11;;;;;;;;;;;;;;;8.60;100.00;101019.09;4986946;28;19918;-90
2022/10/06 13:37:36;;;;;;;;;;;;;;;8.62;100.00;101017.34;4989429;28;19922;-90
2022/10/06 13:40:12;;;;;;;;;;;;;;;8.49;100.00;101022.78;5006771;28;20340;-89
2022/10/06 13:42:38;;;;;;;;;;;;;;;8.52;100.00;101017.47;5006459;28;19914;-91
2022/10/06 13:45:13;;;;;;;;;;;;;;;8.51;100.00;101022.78;4989246;28;19971;-87
2022/10/06 13:47:38;;;;;;;;;;;;;;;8.45;100.00;101014.94;4981280;28;19921;-93
2022/10/06 13:50:06;;;;;;;;;;;;;;;8.62;100.00;101022.63;5004914;28;19925;-93
2022/10/06 13:52:32;;;;;;;;;;;;;;;8.63;100.00;101016.41;4987869;28;19929;-94
2022/10/06 13:54:59;;;;;;;;;;;;;;;8.54;100.00;101018.31;5006443;28;20466;-92
2022/10/06 13:57:33;;;;;;;;;;;;;;;8.72;100.00;101008.34;4988798;28;19921;-92
2022/10/06 14:00:22;;;;;;;;;;;;;;;8.51;100.00;101010.44;4996268;28;19917;-88
2022/10/06 14:03:08;;;;;;;;;;;;;;;8.67;100.00;101012.84;4990402;28;20443;-89
2022/10/06 14:05:43;;;;;;;;;;;;;;;8.69;100.00;101008.41;4982194;28;20400;-90
2022/10/06 14:08:08;;;;;;;;;;;;;;;8.67;100.00;101008.44;4995335;28;20377;-84
2022/10/06 14:10:41;;;;;;;;;;;;;;;8.73;100.00;101004.81;5000446;28;19929;-91
2022/10/06 14:13:08;;;;;;;;;;;;;;;8.45;100.00;101005.22;4993251;28;19917;-87
2022/10/06 14:15:37;;;;;;;;;;;;;;;8.64;100.00;101012.88;4987573;28;19979;-93
2022/10/06 14:18:03;;;;;;;;;;;;;;;8.87;100.00;101005.47;5001582;28;20381;-93
2022/10/06 14:20:40;;;;;;;;;;;;;;;8.72;100.00;100995.16;5000850;28;19918;-88
2022/10/06 14:23:25;;;;;;;;;;;;;;;8.57;100.00;101000.66;5004170;28;19964;-89
2022/10/06 14:25:50;;;;;;;;;;;;;;;8.47;100.00;100998.19;4992339;28;20068;-87
2022/10/06 14:28:16;;;;;;;;;;;;;;;8.43;100.00;100996.47;4987638;28;20024;-91
2022/10/06 14:30:41;;;;;;;;;;;;;;;8.59;100.00;100991.81;4987634;28;19991;-89
2022/10/06 14:33:07;;;;;;;;;;;;;;;8.52;100.00;100993.69;4988255;28;20362;-90
2022/10/06 14:35:32;;;;;;;;;;;;;;;8.44;100.00;100992.03;4985104;28;19977;-93
2022/10/06 14:37:57;;;;;;;;;;;;;;;8.81;100.00;100996.78;4988093;28;19929;-90
2022/10/06 14:40:23;;;;;;;;;;;;;;;8.86;100.00;101001.06;4983034;28;19936;-86
2022/10/06 14:42:48;;;;;;;;;;;;;;;8.85;100.00;100994.03;4986752;28;19977;-87
2022/10/06 14:45:13;;;;;;;;;;;;;;;8.48;100.00;100999.91;4981718;28;19932;-92
2022/10/06 14:47:38;;;;;;;;;;;;;;;8.45;100.00;100996.44;5003422;28;19918;-91
2022/10/06 14:50:04;;;;;;;;;;;;;;;8.66;100.00;100984.66;4984254;28;19921;-85
2022/10/06 14:52:29;;;;;;;;;;;;;;;8.51;100.00;100980.50;4989278;28;19928;-90
2022/10/06 14:54:54;;;;;;;;;;;;;;;8.47;100.00;100979.69;4988402;28;19917;-89
2022/10/06 14:57:20;;;;;;;;;;;;;;;8.54;100.00;100981.31;4987787;28;20368;-89
2022/10/06 14:59:45;;;;;;;;;;;;;;;8.50;100.00;100979.66;4986809;28;19921;-86
2022/10/06 15:02:11;;;;;;;;;;;;;;;8.57;100.00;100979.53;5002609;28;20000;-88
2022/10/06 15:04:36;;;;;;;;;;;;;;;8.52;100.00;100988.41;4985737;28;20094;-88
2022/10/06 15:09:45;;;;;;;;;;;;;;;8.73;100.00;100976.63;5003246;28;19945;-89
2022/10/06 15:12:10;;;;;;;;;;;;;;;8.64;100.00;100970.63;5008721;28;19918;-86
2022/10/06 15:14:38;;;;;;;;;;;;;;;8.81;100.00;100967.72;4985063;28;19918;-85
2022/10/06 15:17:03;;;;;;;;;;;;;;;8.67;100.00;100970.56;4985316;28;19922;-90
2022/10/06 15:19:29;;;;;;;;;;;;;;;8.78;100.00;100968.63;4995711;28;20328;-92
2022/10/06 15:21:55;;;;;;;;;;;;;;;8.68;100.00;100967.00;4986415;28;20370;-89
2022/10/06 15:24:20;;;;;;;;;;;;;;;8.53;100.00;100966.34;4987720;28;19923;-91
2022/10/06 15:29:30;;;;;;;;;;;;;;;8.52;100.00;100962.00;5004050;28;20068;-91
2022/10/06 15:31:57;;;;;;;;;;;;;;;8.70;100.00;100954.66;4987048;28;19996;-89
2022/10/06 15:34:24;;;;;;;;;;;;;;;8.87;100.00;100954.38;4987816;28;20029;-91
2022/10/06 15:36:51;;;;;;;;;;;;;;;8.75;100.00;100947.53;5008382;28;19922;-86
2022/10/06 15:39:17;;;;;;;;;;;;;;;8.56;100.00;100954.03;4989324;28;19918;-88
2022/10/06 15:41:42;;;;;;;;;;;;;;;8.55;100.00;100950.47;4988606;28;20383;-89
2022/10/06 15:44:09;;;;;;;;;;;;;;;8.54;100.00;100943.47;4981516;28;19922;-89
2022/10/06 15:46:36;;;;;;;;;;;;;;;8.57;100.00;100947.81;5002525;28;19924;-87
2022/10/06 15:49:09;;;;;;;;;;;;;;;8.57;100.00;100948.72;5003198;28;20303;-91
2022/10/06 15:51:41;;;;;;;;;;;;;;;8.58;100.00;100949.56;5001067;28;19925;-89
2022/10/06 15:54:06;;;;;;;;;;;;;;;8.55;100.00;100945.19;4984784;28;20381;-82
2022/10/06 15:56:32;;;;;;;;;;;;;;;8.58;100.00;100947.78;4987702;28;19922;-91
2022/10/06 15:58:57;;;;;;;;;;;;;;;8.59;100.00;100943.41;4990862;28;19918;-84
2022/10/06 16:01:31;;;;;;;;;;;;;;;8.62;100.00;100932.78;4984492;28;20317;-84
2022/10/06 16:03:59;;;;;;;;;;;;;;;8.65;100.00;100932.75;4984512;28;19969;-91
2022/10/06 16:06:39;;;;;;;;;;;;;;;8.61;100.00;100944.25;4981669;28;19921;-84
2022/10/06 16:09:05;;;;;;;;;;;;;;;8.60;100.00;100947.78;4985988;28;19929;-92
2022/10/06 16:11:31;;;;;;;;;;;;;;;8.62;100.00;100946.00;4982093;28;19977;-86
2022/10/06 16:13:56;;;;;;;;;;;;;;;8.66;100.00;100938.00;4982559;28;20497;-87
2022/10/06 16:16:21;;;;;;;;;;;;;;;8.68;100.00;100943.22;4984612;28;20347;-89
2022/10/06 16:18:46;;;;;;;;;;;;;;;8.64;100.00;100949.47;4983769;28;19918;-88
2022/10/06 16:21:12;;;;;;;;;;;;;;;8.67;100.00;100941.50;4984813;28;19922;-86
2022/10/06 16:23:37;;;;;;;;;;;;;;;8.63;100.00;100945.09;4987935;28;20371;-82
2022/10/06 16:26:02;;;;;;;;;;;;;;;8.61;100.00;100937.19;4984382;28;20429;-90
2022/10/06 16:28:28;;;;;;;;;;;;;;;8.63;100.00;100937.16;4984255;28;19924;-85
2022/10/06 16:30:54;;;;;;;;;;;;;;;8.62;100.00;100935.44;4985746;28;19932;-89
2022/10/06 16:33:21;;;;;;;;;;;;;;;8.64;100.00;100936.28;4986088;28;19917;-88
2022/10/06 16:35:54;;;;;;;;;;;;;;;8.65;100.00;100935.38;4985442;28;19921;-89
2022/10/06 16:38:21;;;;;;;;;;;;;;;8.62;100.00;100925.72;4996044;28;19925;-92
2022/10/06 16:40:56;;;;;;;;;;;;;;;8.60;100.00;100934.56;4984118;28;20297;-86
2022/10/06 16:43:25;;;;;;;;;;;;;;;8.60;100.00;100934.56;4999810;28;20389;-88
2022/10/06 16:46:01;;;;;;;;;;;;;;;8.62;100.00;100936.28;4997933;28;19922;-82
2022/10/06 16:48:27;;;;;;;;;;;;;;;8.62;100.00;100932.78;5001624;28;19919;-86
2022/10/06 16:51:02;;;;;;;;;;;;;;;8.59;100.00;100943.41;5000862;28;19969;-83
2022/10/06 16:53:27;;;;;;;;;;;;;;;8.61;100.00;100934.53;5002214;28;20492;-85
2022/10/06 16:55:52;;;;;;;;;;;;;;;8.56;100.00;100935.53;4984831;28;19928;-86
2022/10/06 16:58:18;;;;;;;;;;;;;;;8.60;100.00;100938.09;5003382;28;19926;-85
2022/10/06 17:00:43;;;;;;;;;;;;;;;8.65;100.00;100936.25;5005473;28;19917;-83
2022/10/06 17:03:08;;;;;;;;;;;;;;;8.59;100.00;100940.75;4984097;28;20316;-85
2022/10/06 17:05:35;;;;;;;;;;;;;;;8.56;100.00;100948.75;4978752;28;19926;-87
2022/10/06 17:08:00;;;;;;;;;;;;;;;8.54;100.00;100938.19;4982736;28;20403;-84
2022/10/06 17:10:26;;;;;;;;;;;;;;;8.58;100.00;100939.00;4980134;28;19925;-93
2022/10/06 17:12:51;;;;;;;;;;;;;;;8.61;100.00;100946.88;4986336;28;20088;-86
2022/10/06 17:15:16;;;;;;;;;;;;;;;8.58;100.00;100950.44;5003244;28;19922;-90
2022/10/06 17:17:42;;;;;;;;;;;;;;;8.54;100.00;100954.91;4981160;28;19984;-88
2022/10/06 17:20:07;;;;;;;;;;;;;;;8.59;100.00;100952.19;4998682;28;19953;-88
2022/10/06 17:22:32;;;;;;;;;;;;;;;8.59;100.00;100954.84;4985419;28;19921;-86
2022/10/06 17:24:59;;;;;;;;;;;;;;;8.57;100.00;100950.47;4983367;28;19919;-92
2022/10/06 17:27:27;;;;;;;;;;;;;;;8.53;100.00;100958.44;4981146;28;19918;-84
2022/10/06 17:29:52;;;;;;;;;;;;;;;8.59;100.00;100957.47;4980007;28;19917;-84
2022/10/06 17:32:18;;;;;;;;;;;;;;;8.61;100.00;100957.44;4986273;28;19921;-85
2022/10/06 17:34:44;;;;;;;;;;;;;;;8.61;100.00;100960.97;4999780;28;19914;-85
2022/10/06 17:37:09;;;;;;;;;;;;;;;8.54;100.00;100962.84;5003195;28;19964;-87
2022/10/06 17:39:34;;;;;;;;;;;;;;;8.60;100.00;100966.25;4986524;28;20019;-90
2022/10/06 17:42:00;;;;;;;;;;;;;;;8.59;100.00;100977.75;5001864;28;19914;-92
2022/10/06 17:44:27;;;;;;;;;;;;;;;8.56;100.00;100969.88;4984393;28;20049;-86
2022/10/06 17:46:56;;;;;;;;;;;;;;;8.58;100.00;100973.34;4988008;28;20000;-83
2022/10/06 17:49:22;;;;;;;;;;;;;;;8.58;100.00;100971.56;4985408;28;20431;-88
2022/10/06 17:51:48;;;;;;;;;;;;;;;8.61;100.00;100974.16;4984739;28;19922;-91
2022/10/06 17:54:15;;;;;;;;;;;;;;;8.57;100.00;100979.53;4981268;28;19921;-86
2022/10/06 17:56:42;;;;;;;;;;;;;;;8.57;100.00;100984.81;4992261;28;19930;-90
2022/10/06 17:59:10;;;;;;;;;;;;;;;8.62;100.00;100978.56;4985994;28;19921;-82
2022/10/06 18:01:36;;;;;;;;;;;;;;;8.57;100.00;100974.25;4987121;28;20440;-84
2022/10/06 18:04:02;;;;;;;;;;;;;;;8.58;100.00;100978.63;4988398;28;19918;-83
2022/10/06 18:06:28;;;;;;;;;;;;;;;8.58;100.00;100987.41;4985691;28;19917;-91
2022/10/06 18:08:54;;;;;;;;;;;;;;;8.55;100.00;100974.25;4987022;28;19925;-83
2022/10/06 18:11:37;;;;;;;;;;;;;;;8.58;100.00;100981.28;4988002;28;19923;-82
2022/10/06 18:14:12;;;;;;;;;;;;;;;8.58;100.00;100981.28;4986661;28;20009;-83
2022/10/06 18:16:39;;;;;;;;;;;;;;;8.59;100.00;100981.25;5001372;28;19918;-83
2022/10/06 18:19:09;;;;;;;;;;;;;;;8.60;100.00;100979.47;5005882;28;20325;-84
2022/10/06 18:21:38;;;;;;;;;;;;;;;8.60;100.00;100976.84;4988544;28;19925;-85
2022/10/06 18:24:15;;;;;;;;;;;;;;;8.66;100.00;100979.38;4988634;28;20383;-83
2022/10/06 18:26:46;;;;;;;;;;;;;;;8.59;100.00;100983.03;4988053;28;20392;-83
2022/10/06 18:29:12;;;;;;;;;;;;;;;8.60;100.00;100984.75;4980865;28;20368;-83
2022/10/06 18:31:38;;;;;;;;;;;;;;;8.63;100.00;100987.34;5003763;28;20000;-83
2022/10/06 18:34:03;;;;;;;;;;;;;;;8.62;100.00;100985.63;4988844;28;19969;-91
2022/10/06 18:36:36;;;;;;;;;;;;;;;8.57;100.00;100985.69;4986905;28;20012;-85
2022/10/06 18:39:02;;;;;;;;;;;;;;;8.60;100.00;100985.66;4984773;28;19918;-84
2022/10/06 18:41:30;;;;;;;;;;;;;;;8.62;100.00;100985.63;4985776;28;20849;-84
2022/10/06 18:43:55;;;;;;;;;;;;;;;8.58;100.00;100976.84;5006058;28;19918;-84
2022/10/06 18:49:11;;;;;;;;;;;;;;;8.61;100.00;100981.22;5003877;28;20311;-83
2022/10/06 18:51:37;;;;;;;;;;;;;;;8.62;100.00;100978.56;4986039;28;19921;-83
2022/10/06 18:54:07;;;;;;;;;;;;;;;8.58;100.00;100981.28;4985286;28;19972;-84
2022/10/06 18:56:34;;;;;;;;;;;;;;;8.59;100.00;100975.09;4986154;28;19918;-89
2022/10/06 18:59:00;;;;;;;;;;;;;;;8.58;100.00;100978.63;4986934;28;19921;-88
2022/10/06 19:01:26;;;;;;;;;;;;;;;8.61;100.00;100973.31;4984999;28;19918;-87
2022/10/06 19:03:56;;;;;;;;;;;;;;;8.62;100.00;100977.69;5006449;28;19917;-89
2022/10/06 19:06:22;;;;;;;;;;;;;;;8.66;100.00;100985.56;4986189;28;19918;-91
2022/10/06 19:08:51;;;;;;;;;;;;;;;8.63;100.00;100982.06;5005089;28;19925;-85
2022/10/06 19:14:01;;;;;;;;;;;;;;;8.64;100.00;100978.53;5003782;28;19964;-89
2022/10/06 19:16:26;;;;;;;;;;;;;;;8.67;100.00;100986.44;4986028;28;20398;-89
2022/10/06 19:18:51;;;;;;;;;;;;;;;8.67;100.00;100976.72;4984826;28;19922;-88
2022/10/06 19:21:17;;;;;;;;;;;;;;;8.73;100.00;100986.34;4982684;28;19922;-83
2022/10/06 19:23:42;;;;;;;;;;;;;;;8.72;100.00;100982.78;5002603;28;19969;-91
2022/10/06 19:26:09;;;;;;;;;;;;;;;8.75;100.00;100981.88;4982560;28;19929;-86
2022/10/06 19:28:38;;;;;;;;;;;;;;;8.78;100.00;100984.47;4986052;28;20016;-86
2022/10/06 19:31:08;;;;;;;;;;;;;;;8.75;100.00;100987.16;4986882;28;20365;-89
2022/10/06 19:33:34;;;;;;;;;;;;;;;8.71;100.00;100985.47;4984944;28;19933;-89
2022/10/06 19:35:59;;;;;;;;;;;;;;;8.76;100.00;100991.56;4984448;28;19922;-91
2022/10/06 19:38:25;;;;;;;;;;;;;;;8.77;100.00;100985.38;4986051;28;19933;-91
2022/10/06 19:40:50;;;;;;;;;;;;;;;8.79;100.00;100991.53;4998209;28;20268;-86
2022/10/06 19:43:16;;;;;;;;;;;;;;;8.83;100.00;100992.34;5001972;28;19922;-91
2022/10/06 19:45:42;;;;;;;;;;;;;;;8.82;100.00;100993.22;4987667;28;19975;-87
2022/10/06 19:48:09;;;;;;;;;;;;;;;8.80;100.00;100995.03;4987681;28;19925;-90